sensor_id;sensor_type;location;lat;lon;timestamp;P1;durP1;ratioP1;P2;durP2;ratioP2
60867;SDS011;46702;48.370;10.794;2022-08-11T00:01:10;4.10;;;2.70;;
60867;SDS011;46702;48.370;10.794;2022-08-11T00:03:43;3.42;;;3.00;;
60867;SDS011;46702;48.370;10.794;2022-08-11T00:06:14;3.60;;;2.65;;
60867;SDS011;46702;48.370;10.794;2022-08-11T00:08:49;3.28;;;2.95;;
60867;SDS011;46702;48.370;10.794;2022-08-11T00:11:16;3.30;;;2.47;;
60867;SDS011;46702;48.370;10.794;2022-08-11T00:13:44;2.60;;;2.40;;
60867;SDS011;46702;48.370;10.794;2022-08-11T00:16:22;3.10;;;2.90;;
60867;SDS011;46702;48.370;10.794;2022-08-11T00:18:51;3.25;;;2.75;;
60867;SDS011;46702;48.370;10.794;2022-08-11T00:21:19;5.97;;;2.97;;
60867;SDS011;46702;48.370;10.794;2022-08-11T00:23:50;6.00;;;3.10;;
60867;SDS011;46702;48.370;10.794;2022-08-11T00:26:19;3.28;;;2.80;;
60867;SDS011;46702;48.370;10.794;2022-08-11T00:28:46;2.95;;;2.75;;
60867;SDS011;46702;48.370;10.794;2022-08-11T00:33:55;4.35;;;2.83;;
60867;SDS011;46702;48.370;10.794;2022-08-11T00:36:25;3.90;;;3.03;;
60867;SDS011;46702;48.370;10.794;2022-08-11T00:39:04;3.10;;;2.90;;
60867;SDS011;46702;48.370;10.794;2022-08-11T00:42:05;4.30;;;3.13;;
60867;SDS011;46702;48.370;10.794;2022-08-11T01:31:15;3.55;;;3.25;;
60867;SDS011;46702;48.370;10.794;2022-08-11T01:34:07;3.13;;;2.83;;
60867;SDS011;46702;48.370;10.794;2022-08-11T01:50:24;4.07;;;3.20;;
60867;SDS011;46702;48.370;10.794;2022-08-11T01:53:08;4.18;;;3.15;;
60867;SDS011;46702;48.370;10.794;2022-08-11T01:58:41;4.82;;;3.00;;
60867;SDS011;46702;48.370;10.794;2022-08-11T02:04:09;3.75;;;2.67;;
60867;SDS011;46702;48.370;10.794;2022-08-11T02:07:38;6.45;;;3.20;;
60867;SDS011;46702;48.370;10.794;2022-08-11T02:13:13;4.30;;;3.25;;
60867;SDS011;46702;48.370;10.794;2022-08-11T02:15:45;3.75;;;3.28;;
60867;SDS011;46702;48.370;10.794;2022-08-11T02:18:20;3.47;;;3.00;;
60867;SDS011;46702;48.370;10.794;2022-08-11T02:24:35;6.13;;;3.33;;
60867;SDS011;46702;48.370;10.794;2022-08-11T02:27:13;6.70;;;3.95;;
60867;SDS011;46702;48.370;10.794;2022-08-11T02:30:06;3.72;;;3.35;;
60867;SDS011;46702;48.370;10.794;2022-08-11T02:32:56;6.13;;;3.38;;
60867;SDS011;46702;48.370;10.794;2022-08-11T02:36:11;3.88;;;3.13;;
60867;SDS011;46702;48.370;10.794;2022-08-11T02:38:54;3.33;;;3.00;;
60867;SDS011;46702;48.370;10.794;2022-08-11T02:41:55;3.75;;;3.13;;
60867;SDS011;46702;48.370;10.794;2022-08-11T02:50:20;4.38;;;3.80;;
60867;SDS011;46702;48.370;10.794;2022-08-11T02:52:51;3.65;;;3.22;;
60867;SDS011;46702;48.370;10.794;2022-08-11T03:01:12;3.60;;;3.25;;
60867;SDS011;46702;48.370;10.794;2022-08-11T03:03:45;4.55;;;3.72;;
60867;SDS011;46702;48.370;10.794;2022-08-11T03:06:34;5.28;;;3.30;;
60867;SDS011;46702;48.370;10.794;2022-08-11T03:09:57;7.97;;;3.50;;
60867;SDS011;46702;48.370;10.794;2022-08-11T03:12:17;4.40;;;3.77;;
60867;SDS011;46702;48.370;10.794;2022-08-11T03:31:29;6.60;;;3.95;;
60867;SDS011;46702;48.370;10.794;2022-08-11T03:36:40;3.88;;;3.42;;
60867;SDS011;46702;48.370;10.794;2022-08-11T03:39:36;4.03;;;3.55;;
60867;SDS011;46702;48.370;10.794;2022-08-11T03:53:08;5.18;;;3.60;;
60867;SDS011;46702;48.370;10.794;2022-08-11T04:07:22;4.35;;;3.85;;
60867;SDS011;46702;48.370;10.794;2022-08-11T04:20:22;5.65;;;4.00;;
60867;SDS011;46702;48.370;10.794;2022-08-11T04:57:58;6.55;;;4.28;;
60867;SDS011;46702;48.370;10.794;2022-08-11T05:00:58;7.03;;;4.35;;
60867;SDS011;46702;48.370;10.794;2022-08-11T05:12:45;8.10;;;4.57;;
60867;SDS011;46702;48.370;10.794;2022-08-11T05:15:23;5.28;;;4.35;;
60867;SDS011;46702;48.370;10.794;2022-08-11T05:18:23;6.43;;;4.35;;
60867;SDS011;46702;48.370;10.794;2022-08-11T05:21:11;5.05;;;3.95;;
60867;SDS011;46702;48.370;10.794;2022-08-11T05:24:08;5.57;;;4.50;;
60867;SDS011;46702;48.370;10.794;2022-08-11T05:27:00;4.72;;;4.32;;
60867;SDS011;46702;48.370;10.794;2022-08-11T05:30:04;6.05;;;4.80;;
60867;SDS011;46702;48.370;10.794;2022-08-11T05:33:02;5.75;;;5.22;;
60867;SDS011;46702;48.370;10.794;2022-08-11T05:36:05;8.05;;;5.03;;
60867;SDS011;46702;48.370;10.794;2022-08-11T05:41:45;4.93;;;4.47;;
60867;SDS011;46702;48.370;10.794;2022-08-11T05:44:33;8.20;;;4.82;;
60867;SDS011;46702;48.370;10.794;2022-08-11T05:47:23;5.20;;;4.70;;
60867;SDS011;46702;48.370;10.794;2022-08-11T05:50:12;6.05;;;4.80;;
60867;SDS011;46702;48.370;10.794;2022-08-11T05:52:58;5.20;;;4.72;;
60867;SDS011;46702;48.370;10.794;2022-08-11T05:55:44;6.93;;;4.53;;
60867;SDS011;46702;48.370;10.794;2022-08-11T05:58:34;6.30;;;4.82;;
60867;SDS011;46702;48.370;10.794;2022-08-11T06:01:02;5.53;;;4.80;;
60867;SDS011;46702;48.370;10.794;2022-08-11T06:03:29;5.70;;;4.50;;
60867;SDS011;46702;48.370;10.794;2022-08-11T06:08:44;6.10;;;4.47;;
60867;SDS011;46702;48.370;10.794;2022-08-11T06:11:10;5.18;;;4.50;;
60867;SDS011;46702;48.370;10.794;2022-08-11T06:13:42;4.97;;;3.90;;
60867;SDS011;46702;48.370;10.794;2022-08-11T06:16:09;5.28;;;4.38;;
60867;SDS011;46702;48.370;10.794;2022-08-11T06:18:39;8.50;;;4.50;;
60867;SDS011;46702;48.370;10.794;2022-08-11T06:21:10;4.30;;;3.90;;
60867;SDS011;46702;48.370;10.794;2022-08-11T06:23:37;5.38;;;4.20;;
60867;SDS011;46702;48.370;10.794;2022-08-11T06:26:10;7.47;;;4.50;;
60867;SDS011;46702;48.370;10.794;2022-08-11T06:28:38;6.07;;;4.40;;
60867;SDS011;46702;48.370;10.794;2022-08-11T06:31:21;5.50;;;4.25;;
60867;SDS011;46702;48.370;10.794;2022-08-11T06:33:59;8.30;;;4.65;;
60867;SDS011;46702;48.370;10.794;2022-08-11T06:40:04;6.32;;;3.75;;
60867;SDS011;46702;48.370;10.794;2022-08-11T06:48:27;3.92;;;3.53;;
60867;SDS011;46702;48.370;10.794;2022-08-11T06:50:59;5.55;;;3.38;;
60867;SDS011;46702;48.370;10.794;2022-08-11T06:53:52;5.13;;;3.60;;
60867;SDS011;46702;48.370;10.794;2022-08-11T06:56:27;5.05;;;3.78;;
60867;SDS011;46702;48.370;10.794;2022-08-11T06:59:14;3.88;;;3.38;;
60867;SDS011;46702;48.370;10.794;2022-08-11T07:02:03;7.03;;;3.50;;
60867;SDS011;46702;48.370;10.794;2022-08-11T07:12:57;5.65;;;3.40;;
60867;SDS011;46702;48.370;10.794;2022-08-11T07:15:42;4.80;;;3.72;;
60867;SDS011;46702;48.370;10.794;2022-08-11T07:18:21;5.50;;;3.80;;
60867;SDS011;46702;48.370;10.794;2022-08-11T07:21:11;5.28;;;3.78;;
60867;SDS011;46702;48.370;10.794;2022-08-11T07:24:05;5.80;;;3.70;;
60867;SDS011;46702;48.370;10.794;2022-08-11T07:27:14;4.35;;;3.13;;
60867;SDS011;46702;48.370;10.794;2022-08-11T07:30:03;4.07;;;3.50;;
60867;SDS011;46702;48.370;10.794;2022-08-11T07:32:32;5.35;;;3.60;;
60867;SDS011;46702;48.370;10.794;2022-08-11T07:35:12;4.95;;;3.60;;
60867;SDS011;46702;48.370;10.794;2022-08-11T07:37:46;4.53;;;3.38;;
60867;SDS011;46702;48.370;10.794;2022-08-11T07:40:18;5.63;;;3.90;;
60867;SDS011;46702;48.370;10.794;2022-08-11T07:42:47;3.58;;;3.05;;
60867;SDS011;46702;48.370;10.794;2022-08-11T07:45:17;4.07;;;3.05;;
60867;SDS011;46702;48.370;10.794;2022-08-11T07:48:02;5.50;;;3.55;;
60867;SDS011;46702;48.370;10.794;2022-08-11T07:50:49;7.68;;;3.30;;
60867;SDS011;46702;48.370;10.794;2022-08-11T07:53:33;5.00;;;3.47;;
60867;SDS011;46702;48.370;10.794;2022-08-11T07:58:29;4.32;;;3.35;;
60867;SDS011;46702;48.370;10.794;2022-08-11T08:01:18;6.40;;;3.42;;
60867;SDS011;46702;48.370;10.794;2022-08-11T08:04:08;6.07;;;3.50;;
60867;SDS011;46702;48.370;10.794;2022-08-11T08:09:39;4.93;;;3.50;;
60867;SDS011;46702;48.370;10.794;2022-08-11T08:12:24;3.45;;;2.90;;
60867;SDS011;46702;48.370;10.794;2022-08-11T08:15:10;3.10;;;2.80;;
60867;SDS011;46702;48.370;10.794;2022-08-11T08:20:27;3.80;;;3.00;;
60867;SDS011;46702;48.370;10.794;2022-08-11T08:22:56;7.25;;;2.97;;
60867;SDS011;46702;48.370;10.794;2022-08-11T08:25:24;3.35;;;2.90;;
60867;SDS011;46702;48.370;10.794;2022-08-11T08:27:52;6.30;;;3.10;;
60867;SDS011;46702;48.370;10.794;2022-08-11T08:30:20;3.17;;;2.88;;
60867;SDS011;46702;48.370;10.794;2022-08-11T08:33:04;5.35;;;2.90;;
60867;SDS011;46702;48.370;10.794;2022-08-11T08:35:30;4.13;;;2.90;;
60867;SDS011;46702;48.370;10.794;2022-08-11T08:37:57;4.57;;;2.92;;
60867;SDS011;46702;48.370;10.794;2022-08-11T08:40:23;4.53;;;3.53;;
60867;SDS011;46702;48.370;10.794;2022-08-11T08:42:57;8.55;;;3.17;;
60867;SDS011;46702;48.370;10.794;2022-08-11T08:45:28;5.10;;;2.70;;
60867;SDS011;46702;48.370;10.794;2022-08-11T08:47:59;3.97;;;3.58;;
60867;SDS011;46702;48.370;10.794;2022-08-11T08:50:30;4.15;;;2.85;;
60867;SDS011;46702;48.370;10.794;2022-08-11T08:53:20;5.07;;;2.72;;
60867;SDS011;46702;48.370;10.794;2022-08-11T08:55:48;4.22;;;2.80;;
60867;SDS011;46702;48.370;10.794;2022-08-11T08:58:15;3.20;;;2.90;;
60867;SDS011;46702;48.370;10.794;2022-08-11T09:00:44;3.30;;;2.90;;
60867;SDS011;46702;48.370;10.794;2022-08-11T09:03:11;4.05;;;2.60;;
60867;SDS011;46702;48.370;10.794;2022-08-11T09:05:38;3.90;;;2.80;;
60867;SDS011;46702;48.370;10.794;2022-08-11T09:08:04;5.82;;;3.13;;
60867;SDS011;46702;48.370;10.794;2022-08-11T09:10:32;3.22;;;3.00;;
60867;SDS011;46702;48.370;10.794;2022-08-11T09:12:59;3.50;;;2.70;;
60867;SDS011;46702;48.370;10.794;2022-08-11T09:15:27;4.13;;;2.90;;
60867;SDS011;46702;48.370;10.794;2022-08-11T09:17:54;2.80;;;2.45;;
60867;SDS011;46702;48.370;10.794;2022-08-11T09:20:27;3.00;;;2.70;;
60867;SDS011;46702;48.370;10.794;2022-08-11T09:23:02;3.33;;;2.72;;
60867;SDS011;46702;48.370;10.794;2022-08-11T09:25:49;4.47;;;2.78;;
60867;SDS011;46702;48.370;10.794;2022-08-11T09:28:36;4.45;;;2.55;;
60867;SDS011;46702;48.370;10.794;2022-08-11T09:31:02;4.82;;;2.67;;
60867;SDS011;46702;48.370;10.794;2022-08-11T09:33:30;4.28;;;2.60;;
60867;SDS011;46702;48.370;10.794;2022-08-11T09:35:56;3.08;;;2.72;;
60867;SDS011;46702;48.370;10.794;2022-08-11T09:38:44;2.65;;;2.45;;
60867;SDS011;46702;48.370;10.794;2022-08-11T09:41:29;3.00;;;2.38;;
60867;SDS011;46702;48.370;10.794;2022-08-11T09:43:57;3.83;;;2.60;;
60867;SDS011;46702;48.370;10.794;2022-08-11T09:46:42;7.63;;;2.38;;
60867;SDS011;46702;48.370;10.794;2022-08-11T09:49:08;3.58;;;2.30;;
60867;SDS011;46702;48.370;10.794;2022-08-11T09:51:34;5.15;;;2.67;;
60867;SDS011;46702;48.370;10.794;2022-08-11T09:54:01;7.90;;;2.80;;
60867;SDS011;46702;48.370;10.794;2022-08-11T09:56:31;2.80;;;2.38;;
60867;SDS011;46702;48.370;10.794;2022-08-11T09:59:16;3.67;;;2.60;;
60867;SDS011;46702;48.370;10.794;2022-08-11T10:01:45;3.28;;;2.40;;
60867;SDS011;46702;48.370;10.794;2022-08-11T10:06:42;3.53;;;2.45;;
60867;SDS011;46702;48.370;10.794;2022-08-11T10:09:33;3.50;;;2.20;;
60867;SDS011;46702;48.370;10.794;2022-08-11T10:12:19;2.55;;;2.38;;
60867;SDS011;46702;48.370;10.794;2022-08-11T10:14:55;3.85;;;2.60;;
60867;SDS011;46702;48.370;10.794;2022-08-11T10:17:52;3.63;;;2.38;;
60867;SDS011;46702;48.370;10.794;2022-08-11T10:20:41;2.70;;;2.50;;
60867;SDS011;46702;48.370;10.794;2022-08-11T10:23:09;3.70;;;2.50;;
60867;SDS011;46702;48.370;10.794;2022-08-11T10:25:55;4.03;;;2.83;;
60867;SDS011;46702;48.370;10.794;2022-08-11T10:28:40;2.53;;;2.33;;
60867;SDS011;46702;48.370;10.794;2022-08-11T10:31:07;6.55;;;2.58;;
60867;SDS011;46702;48.370;10.794;2022-08-11T10:33:52;2.33;;;2.20;;
60867;SDS011;46702;48.370;10.794;2022-08-11T10:36:28;6.57;;;2.53;;
60867;SDS011;46702;48.370;10.794;2022-08-11T10:39:06;8.18;;;2.47;;
60867;SDS011;46702;48.370;10.794;2022-08-11T10:41:33;3.40;;;2.30;;
60867;SDS011;46702;48.370;10.794;2022-08-11T10:44:17;3.42;;;2.20;;
60867;SDS011;46702;48.370;10.794;2022-08-11T10:46:45;3.95;;;2.15;;
60867;SDS011;46702;48.370;10.794;2022-08-11T10:49:30;2.42;;;2.20;;
60867;SDS011;46702;48.370;10.794;2022-08-11T10:51:56;5.70;;;2.25;;
60867;SDS011;46702;48.370;10.794;2022-08-11T10:54:42;5.38;;;2.20;;
60867;SDS011;46702;48.370;10.794;2022-08-11T10:57:27;3.15;;;2.22;;
60867;SDS011;46702;48.370;10.794;2022-08-11T11:00:12;3.25;;;2.25;;
60867;SDS011;46702;48.370;10.794;2022-08-11T11:02:42;2.25;;;2.05;;
60867;SDS011;46702;48.370;10.794;2022-08-11T11:05:20;3.13;;;2.40;;
60867;SDS011;46702;48.370;10.794;2022-08-11T11:07:53;3.88;;;2.33;;
60867;SDS011;46702;48.370;10.794;2022-08-11T11:10:57;2.85;;;2.50;;
60867;SDS011;46702;48.370;10.794;2022-08-11T11:13:23;3.45;;;2.28;;
60867;SDS011;46702;48.370;10.794;2022-08-11T11:16:08;3.38;;;2.42;;
60867;SDS011;46702;48.370;10.794;2022-08-11T11:18:53;3.60;;;2.50;;
60867;SDS011;46702;48.370;10.794;2022-08-11T11:21:24;3.63;;;2.25;;
60867;SDS011;46702;48.370;10.794;2022-08-11T11:34:39;2.72;;;2.45;;
60867;SDS011;46702;48.370;10.794;2022-08-11T11:37:07;3.10;;;2.30;;
60867;SDS011;46702;48.370;10.794;2022-08-11T11:39:33;3.10;;;2.33;;
60867;SDS011;46702;48.370;10.794;2022-08-11T11:42:08;3.70;;;2.00;;
60867;SDS011;46702;48.370;10.794;2022-08-11T11:44:38;2.17;;;2.00;;
60867;SDS011;46702;48.370;10.794;2022-08-11T11:47:07;2.28;;;2.08;;
60867;SDS011;46702;48.370;10.794;2022-08-11T11:49:35;2.20;;;2.00;;
60867;SDS011;46702;48.370;10.794;2022-08-11T11:52:04;2.40;;;2.20;;
60867;SDS011;46702;48.370;10.794;2022-08-11T11:54:32;2.83;;;2.28;;
60867;SDS011;46702;48.370;10.794;2022-08-11T11:57:00;4.35;;;2.03;;
60867;SDS011;46702;48.370;10.794;2022-08-11T11:59:49;4.53;;;2.20;;
60867;SDS011;46702;48.370;10.794;2022-08-11T12:02:35;2.42;;;2.22;;
60867;SDS011;46702;48.370;10.794;2022-08-11T12:05:02;2.88;;;2.30;;
60867;SDS011;46702;48.370;10.794;2022-08-11T12:07:29;4.20;;;2.05;;
60867;SDS011;46702;48.370;10.794;2022-08-11T12:10:15;3.50;;;2.33;;
60867;SDS011;46702;48.370;10.794;2022-08-11T12:12:43;2.58;;;2.10;;
60867;SDS011;46702;48.370;10.794;2022-08-11T12:15:28;4.30;;;2.40;;
60867;SDS011;46702;48.370;10.794;2022-08-11T12:17:54;2.37;;;2.23;;
60867;SDS011;46702;48.370;10.794;2022-08-11T12:20:21;2.58;;;2.20;;
60867;SDS011;46702;48.370;10.794;2022-08-11T12:22:48;2.33;;;2.13;;
60867;SDS011;46702;48.370;10.794;2022-08-11T12:25:33;3.13;;;2.20;;
60867;SDS011;46702;48.370;10.794;2022-08-11T12:28:18;2.38;;;2.17;;
60867;SDS011;46702;48.370;10.794;2022-08-11T12:30:46;2.30;;;2.10;;
60867;SDS011;46702;48.370;10.794;2022-08-11T12:33:14;2.38;;;1.90;;
60867;SDS011;46702;48.370;10.794;2022-08-11T12:35:40;3.55;;;2.33;;
60867;SDS011;46702;48.370;10.794;2022-08-11T12:38:07;2.60;;;2.20;;
60867;SDS011;46702;48.370;10.794;2022-08-11T12:40:34;2.55;;;2.30;;
60867;SDS011;46702;48.370;10.794;2022-08-11T12:43:21;3.15;;;2.20;;
60867;SDS011;46702;48.370;10.794;2022-08-11T12:46:15;2.42;;;2.22;;
60867;SDS011;46702;48.370;10.794;2022-08-11T12:48:55;2.80;;;2.30;;
60867;SDS011;46702;48.370;10.794;2022-08-11T12:51:44;5.63;;;2.40;;
60867;SDS011;46702;48.370;10.794;2022-08-11T12:54:39;2.30;;;2.00;;
60867;SDS011;46702;48.370;10.794;2022-08-11T12:57:08;2.70;;;2.05;;
60867;SDS011;46702;48.370;10.794;2022-08-11T12:59:56;3.25;;;2.30;;
60867;SDS011;46702;48.370;10.794;2022-08-11T13:02:43;2.65;;;2.08;;
60867;SDS011;46702;48.370;10.794;2022-08-11T13:05:29;2.38;;;2.10;;
60867;SDS011;46702;48.370;10.794;2022-08-11T13:07:57;2.25;;;2.10;;
60867;SDS011;46702;48.370;10.794;2022-08-11T13:10:25;3.05;;;2.42;;
60867;SDS011;46702;48.370;10.794;2022-08-11T13:13:10;2.83;;;2.30;;
60867;SDS011;46702;48.370;10.794;2022-08-11T13:15:37;3.75;;;2.17;;
60867;SDS011;46702;48.370;10.794;2022-08-11T13:18:02;2.15;;;2.05;;
60867;SDS011;46702;48.370;10.794;2022-08-11T13:20:31;2.72;;;2.17;;
60867;SDS011;46702;48.370;10.794;2022-08-11T13:22:58;2.08;;;1.95;;
60867;SDS011;46702;48.370;10.794;2022-08-11T13:25:26;2.47;;;2.05;;
60867;SDS011;46702;48.370;10.794;2022-08-11T13:27:55;2.08;;;1.90;;
60867;SDS011;46702;48.370;10.794;2022-08-11T13:30:25;2.53;;;2.22;;
60867;SDS011;46702;48.370;10.794;2022-08-11T13:33:12;1.95;;;1.85;;
60867;SDS011;46702;48.370;10.794;2022-08-11T13:35:38;4.72;;;2.13;;
60867;SDS011;46702;48.370;10.794;2022-08-11T13:38:05;2.25;;;2.05;;
60867;SDS011;46702;48.370;10.794;2022-08-11T13:40:37;2.05;;;1.95;;
60867;SDS011;46702;48.370;10.794;2022-08-11T13:43:04;2.20;;;2.10;;
60867;SDS011;46702;48.370;10.794;2022-08-11T13:45:30;3.40;;;2.15;;
60867;SDS011;46702;48.370;10.794;2022-08-11T13:47:58;2.50;;;2.00;;
60867;SDS011;46702;48.370;10.794;2022-08-11T13:50:25;2.40;;;2.20;;
60867;SDS011;46702;48.370;10.794;2022-08-11T13:53:10;2.08;;;1.92;;
60867;SDS011;46702;48.370;10.794;2022-08-11T13:55:39;3.28;;;2.20;;
60867;SDS011;46702;48.370;10.794;2022-08-11T13:58:06;2.47;;;1.97;;
60867;SDS011;46702;48.370;10.794;2022-08-11T14:00:37;3.72;;;2.10;;
60867;SDS011;46702;48.370;10.794;2022-08-11T14:03:07;2.60;;;2.17;;
60867;SDS011;46702;48.370;10.794;2022-08-11T14:05:39;1.83;;;1.73;;
60867;SDS011;46702;48.370;10.794;2022-08-11T14:08:10;1.83;;;1.73;;
60867;SDS011;46702;48.370;10.794;2022-08-11T14:10:39;2.35;;;1.90;;
60867;SDS011;46702;48.370;10.794;2022-08-11T14:13:09;2.10;;;1.92;;
60867;SDS011;46702;48.370;10.794;2022-08-11T14:15:58;3.30;;;2.13;;
60867;SDS011;46702;48.370;10.794;2022-08-11T14:18:29;2.10;;;1.90;;
